sensor_id;sensor_type;location;lat;lon;timestamp;pressure;altitude;pressure_sealevel;temperature;humidity
23446;BME280;11895;48.738;9.320;2023-02-01T00:01:13;99494.56;;;5.91;100.00
23446;BME280;11895;48.738;9.320;2023-02-01T00:03:41;99497.44;;;5.80;100.00
23446;BME280;11895;48.738;9.320;2023-02-01T00:06:09;99484.56;;;6.05;100.00
23446;BME280;11895;48.738;9.320;2023-02-01T00:08:37;99475.84;;;5.89;100.00
23446;BME280;11895;48.738;9.320;2023-02-01T00:11:07;99470.47;;;5.96;100.00
23446;BME280;11895;48.738;9.320;2023-02-01T00:13:38;99475.88;;;5.88;100.00
23446;BME280;11895;48.738;9.320;2023-02-01T00:16:12;99471.31;;;5.98;100.00
23446;BME280;11895;48.738;9.320;2023-02-01T00:18:50;99468.59;;;6.01;100.00
23446;BME280;11895;48.738;9.320;2023-02-01T00:21:20;99461.84;;;5.75;100.00
23446;BME280;11895;48.738;9.320;2023-02-01T00:23:48;99445.66;;;5.84;100.00
23446;BME280;11895;48.738;9.320;2023-02-01T00:26:20;99450.66;;;6.04;100.00
23446;BME280;11895;48.738;9.320;2023-02-01T00:28:52;99449.00;;;6.00;100.00
23446;BME280;11895;48.738;9.320;2023-02-01T00:31:20;99451.88;;;5.85;100.00
23446;BME280;11895;48.738;9.320;2023-02-01T00:33:49;99473.50;;;5.70;100.00
23446;BME280;11895;48.738;9.320;2023-02-01T00:36:17;99458.47;;;5.64;100.00
23446;BME280;11895;48.738;9.320;2023-02-01T00:38:45;99461.84;;;5.75;100.00
23446;BME280;11895;48.738;9.320;2023-02-01T00:41:16;99458.13;;;5.85;100.00
23446;BME280;11895;48.738;9.320;2023-02-01T00:43:46;99459.38;;;6.17;100.00
23446;BME280;11895;48.738;9.320;2023-02-01T00:46:16;99458.06;;;5.88;100.00
23446;BME280;11895;48.738;9.320;2023-02-01T00:48:46;99454.59;;;5.83;100.00
23446;BME280;11895;48.738;9.320;2023-02-01T00:51:23;99457.00;;;6.00;100.00
23446;BME280;11895;48.738;9.320;2023-02-01T00:53:53;99450.19;;;5.81;100.00
23446;BME280;11895;48.738;9.320;2023-02-01T00:56:21;99467.00;;;5.87;100.00
23446;BME280;11895;48.738;9.320;2023-02-01T00:58:49;99460.53;;;6.02;100.00
23446;BME280;11895;48.738;9.320;2023-02-01T01:01:20;99450.66;;;6.06;100.00
23446;BME280;11895;48.738;9.320;2023-02-01T01:03:53;99454.97;;;6.14;100.00
23446;BME280;11895;48.738;9.320;2023-02-01T01:06:29;99455.56;;;6.30;100.00
23446;BME280;11895;48.738;9.320;2023-02-01T01:09:00;99452.38;;;6.08;100.00
23446;BME280;11895;48.738;9.320;2023-02-01T01:11:32;99447.81;;;6.13;100.00
23446;BME280;11895;48.738;9.320;2023-02-01T01:14:02;99444.31;;;6.11;100.00
23446;BME280;11895;48.738;9.320;2023-02-01T01:16:31;99445.03;;;6.21;100.00
23446;BME280;11895;48.738;9.320;2023-02-01T01:19:01;99445.31;;;6.04;100.00
23446;BME280;11895;48.738;9.320;2023-02-01T01:21:30;99445.19;;;6.12;100.00
23446;BME280;11895;48.738;9.320;2023-02-01T01:23:59;99442.47;;;6.13;100.00
23446;BME280;11895;48.738;9.320;2023-02-01T01:26:28;99440.97;;;6.00;100.00
23446;BME280;11895;48.738;9.320;2023-02-01T01:28:58;99454.25;;;6.05;100.00
23446;BME280;11895;48.738;9.320;2023-02-01T01:31:27;99448.03;;;6.03;100.00
23446;BME280;11895;48.738;9.320;2023-02-01T01:33:56;99439.28;;;5.93;100.00
23446;BME280;11895;48.738;9.320;2023-02-01T01:36:25;99456.06;;;6.03;100.00
23446;BME280;11895;48.738;9.320;2023-02-01T01:38:55;99446.56;;;5.83;100.00
23446;BME280;11895;48.738;9.320;2023-02-01T01:41:25;99454.47;;;5.92;100.00
23446;BME280;11895;48.738;9.320;2023-02-01T01:44:02;99449.88;;;5.99;100.00
23446;BME280;11895;48.738;9.320;2023-02-01T01:46:38;99450.53;;;6.12;100.00
23446;BME280;11895;48.738;9.320;2023-02-01T01:49:21;99448.53;;;6.23;100.00
23446;BME280;11895;48.738;9.320;2023-02-01T01:51:57;99449.63;;;6.14;100.00
23446;BME280;11895;48.738;9.320;2023-02-01T01:54:43;99454.06;;;6.14;100.00
23446;BME280;11895;48.738;9.320;2023-02-01T01:57:18;99441.25;;;6.31;100.00
23446;BME280;11895;48.738;9.320;2023-02-01T01:59:56;99436.03;;;6.25;100.00
23446;BME280;11895;48.738;9.320;2023-02-01T02:02:41;99424.63;;;6.15;100.00
23446;BME280;11895;48.738;9.320;2023-02-01T02:05:12;99420.41;;;6.47;100.00
23446;BME280;11895;48.738;9.320;2023-02-01T02:07:45;99426.91;;;6.35;100.00
23446;BME280;11895;48.738;9.320;2023-02-01T02:10:15;99419.72;;;6.37;100.00
23446;BME280;11895;48.738;9.320;2023-02-01T02:12:46;99426.16;;;6.27;100.00
23446;BME280;11895;48.738;9.320;2023-02-01T02:15:16;99416.34;;;6.29;100.00
23446;BME280;11895;48.738;9.320;2023-02-01T02:18:09;99420.88;;;6.69;100.00
23446;BME280;11895;48.738;9.320;2023-02-01T02:29:36;99423.38;;;6.77;100.00
23446;BME280;11895;48.738;9.320;2023-02-01T02:35:48;99404.59;;;6.36;100.00
23446;BME280;11895;48.738;9.320;2023-02-01T02:43:48;99391.53;;;6.21;100.00
23446;BME280;11895;48.738;9.320;2023-02-01T02:46:40;99401.25;;;6.24;100.00
23446;BME280;11895;48.738;9.320;2023-02-01T02:49:55;99409.81;;;6.44;100.00
23446;BME280;11895;48.738;9.320;2023-02-01T02:53:18;99404.63;;;6.33;100.00
23446;BME280;11895;48.738;9.320;2023-02-01T02:56:10;99420.56;;;6.41;100.00
23446;BME280;11895;48.738;9.320;2023-02-01T02:58:58;99399.16;;;6.41;100.00
23446;BME280;11895;48.738;9.320;2023-02-01T03:01:45;99415.34;;;6.35;100.00
23446;BME280;11895;48.738;9.320;2023-02-01T03:04:32;99399.50;;;6.24;100.00
23446;BME280;11895;48.738;9.320;2023-02-01T03:07:46;99393.53;;;6.08;100.00
23446;BME280;11895;48.738;9.320;2023-02-01T03:10:47;99389.22;;;6.01;100.00
23446;BME280;11895;48.738;9.320;2023-02-01T03:16:15;99399.09;;;5.98;100.00
23446;BME280;11895;48.738;9.320;2023-02-01T03:24:36;99391.06;;;5.98;100.00
23446;BME280;11895;48.738;9.320;2023-02-01T03:30:09;99379.38;;;6.05;100.00
23446;BME280;11895;48.738;9.320;2023-02-01T03:32:48;99385.13;;;6.30;100.00
23446;BME280;11895;48.738;9.320;2023-02-01T03:35:45;99379.72;;;6.31;100.00
23446;BME280;11895;48.738;9.320;2023-02-01T03:38:37;99375.59;;;6.15;100.00
23446;BME280;11895;48.738;9.320;2023-02-01T03:46:39;99361.34;;;6.13;100.00
23446;BME280;11895;48.738;9.320;2023-02-01T03:49:27;99351.09;;;5.91;100.00
23446;BME280;11895;48.738;9.320;2023-02-01T03:51:59;99343.31;;;6.24;100.00
23446;BME280;11895;48.738;9.320;2023-02-01T03:54:29;99334.28;;;6.28;100.00
23446;BME280;11895;48.738;9.320;2023-02-01T03:57:01;99337.28;;;6.14;100.00
23446;BME280;11895;48.738;9.320;2023-02-01T03:59:32;99336.97;;;6.28;100.00
23446;BME280;11895;48.738;9.320;2023-02-01T04:02:00;99350.59;;;6.16;100.00
23446;BME280;11895;48.738;9.320;2023-02-01T04:04:28;99360.34;;;6.18;100.00
23446;BME280;11895;48.738;9.320;2023-02-01T04:06:56;99361.78;;;5.91;100.00
23446;BME280;11895;48.738;9.320;2023-02-01T04:09:24;99353.81;;;5.87;100.00
23446;BME280;11895;48.738;9.320;2023-02-01T04:11:52;99350.97;;;5.98;100.00
23446;BME280;11895;48.738;9.320;2023-02-01T04:14:20;99359.78;;;6.03;100.00
23446;BME280;11895;48.738;9.320;2023-02-01T04:16:47;99354.06;;;6.21;100.00
23446;BME280;11895;48.738;9.320;2023-02-01T04:19:15;99356.47;;;6.35;100.00
23446;BME280;11895;48.738;9.320;2023-02-01T04:21:43;99350.94;;;6.44;100.00
23446;BME280;11895;48.738;9.320;2023-02-01T04:24:11;99350.63;;;6.58;100.00
23446;BME280;11895;48.738;9.320;2023-02-01T04:26:39;99350.25;;;6.75;100.00
23446;BME280;11895;48.738;9.320;2023-02-01T04:29:09;99356.28;;;6.84;100.00
23446;BME280;11895;48.738;9.320;2023-02-01T04:31:37;99361.38;;;6.95;100.00
23446;BME280;11895;48.738;9.320;2023-02-01T04:34:05;99372.47;;;6.78;100.00
23446;BME280;11895;48.738;9.320;2023-02-01T04:36:32;99379.16;;;6.57;100.00
23446;BME280;11895;48.738;9.320;2023-02-01T04:39:00;99383.53;;;6.63;100.00
23446;BME280;11895;48.738;9.320;2023-02-01T04:41:27;99385.00;;;6.76;100.00
23446;BME280;11895;48.738;9.320;2023-02-01T04:43:56;99371.41;;;6.85;100.00
23446;BME280;11895;48.738;9.320;2023-02-01T04:46:24;99356.31;;;6.83;100.00
23446;BME280;11895;48.738;9.320;2023-02-01T04:48:51;99345.19;;;6.62;100.00
23446;BME280;11895;48.738;9.320;2023-02-01T04:51:19;99344.81;;;6.37;100.00
23446;BME280;11895;48.738;9.320;2023-02-01T04:53:47;99352.81;;;6.39;100.00
23446;BME280;11895;48.738;9.320;2023-02-01T04:56:15;99358.44;;;6.67;100.00
23446;BME280;11895;48.738;9.320;2023-02-01T04:58:42;99356.97;;;6.54;100.00
23446;BME280;11895;48.738;9.320;2023-02-01T05:01:10;99346.63;;;6.76;100.00
23446;BME280;11895;48.738;9.320;2023-02-01T05:03:38;99350.31;;;6.72;100.00
23446;BME280;11895;48.738;9.320;2023-02-01T05:06:05;99352.28;;;6.63;100.00
23446;BME280;11895;48.738;9.320;2023-02-01T05:08:33;99347.59;;;6.73;100.00
23446;BME280;11895;48.738;9.320;2023-02-01T05:11:03;99332.00;;;6.52;100.00
23446;BME280;11895;48.738;9.320;2023-02-01T05:13:31;99343.41;;;6.61;100.00
23446;BME280;11895;48.738;9.320;2023-02-01T05:16:17;99344.78;;;6.39;100.00
23446;BME280;11895;48.738;9.320;2023-02-01T05:18:48;99352.19;;;6.66;100.00
23446;BME280;11895;48.738;9.320;2023-02-01T05:21:16;99354.91;;;6.65;100.00
23446;BME280;11895;48.738;9.320;2023-02-01T05:23:44;99355.34;;;6.87;100.00
23446;BME280;11895;48.738;9.320;2023-02-01T05:26:31;99360.06;;;6.74;100.00
23446;BME280;11895;48.738;9.320;2023-02-01T05:28:59;99360.06;;;6.74;100.00
23446;BME280;11895;48.738;9.320;2023-02-01T05:31:27;99360.44;;;6.98;100.00
23446;BME280;11895;48.738;9.320;2023-02-01T05:33:55;99357.19;;;6.83;100.00
23446;BME280;11895;48.738;9.320;2023-02-01T05:36:23;99357.97;;;6.88;100.00
23446;BME280;11895;48.738;9.320;2023-02-01T05:38:51;99355.25;;;6.90;100.00
23446;BME280;11895;48.738;9.320;2023-02-01T05:41:19;99360.91;;;6.78;100.00
23446;BME280;11895;48.738;9.320;2023-02-01T05:43:46;99360.44;;;6.98;100.00
23446;BME280;11895;48.738;9.320;2023-02-01T05:46:14;99359.38;;;7.05;100.00
23446;BME280;11895;48.738;9.320;2023-02-01T05:48:42;99356.41;;;6.78;100.00
23446;BME280;11895;48.738;9.320;2023-02-01T05:51:11;99366.25;;;7.15;100.00
23446;BME280;11895;48.738;9.320;2023-02-01T05:53:39;99367.50;;;7.37;100.00
23446;BME280;11895;48.738;9.320;2023-02-01T05:56:07;99379.50;;;7.22;100.00
23446;BME280;11895;48.738;9.320;2023-02-01T05:58:35;99375.59;;;6.99;100.00
23446;BME280;11895;48.738;9.320;2023-02-01T06:01:03;99372.59;;;6.74;100.00
23446;BME280;11895;48.738;9.320;2023-02-01T06:03:31;99377.66;;;6.46;100.00
23446;BME280;11895;48.738;9.320;2023-02-01T06:05:59;99386.03;;;6.72;100.00
23446;BME280;11895;48.738;9.320;2023-02-01T06:08:28;99383.91;;;6.44;100.00
23446;BME280;11895;48.738;9.320;2023-02-01T06:11:01;99382.22;;;6.40;100.00
23446;BME280;11895;48.738;9.320;2023-02-01T06:13:30;99384.66;;;6.53;100.00
23446;BME280;11895;48.738;9.320;2023-02-01T06:16:02;99369.84;;;6.33;100.00
23446;BME280;11895;48.738;9.320;2023-02-01T06:18:31;99364.63;;;6.27;100.00
23446;BME280;11895;48.738;9.320;2023-02-01T06:21:00;99364.59;;;6.30;100.00
23446;BME280;11895;48.738;9.320;2023-02-01T06:23:29;99360.47;;;6.56;100.00
23446;BME280;11895;48.738;9.320;2023-02-01T06:26:06;99353.06;;;6.67;100.00
23446;BME280;11895;48.738;9.320;2023-02-01T06:28:37;99357.44;;;6.73;100.00
23446;BME280;11895;48.738;9.320;2023-02-01T06:31:06;99356.81;;;6.60;100.00
23446;BME280;11895;48.738;9.320;2023-02-01T06:33:35;99373.81;;;6.59;100.00
23446;BME280;11895;48.738;9.320;2023-02-01T06:36:06;99367.69;;;6.09;100.00
23446;BME280;11895;48.738;9.320;2023-02-01T06:38:35;99355.91;;;6.17;100.00
23446;BME280;11895;48.738;9.320;2023-02-01T06:41:04;99362.41;;;6.48;100.00
23446;BME280;11895;48.738;9.320;2023-02-01T06:43:32;99357.50;;;6.69;100.00
23446;BME280;11895;48.738;9.320;2023-02-01T06:46:05;99363.72;;;6.70;100.00
23446;BME280;11895;48.738;9.320;2023-02-01T06:48:35;99367.97;;;6.80;100.00
23446;BME280;11895;48.738;9.320;2023-02-01T06:51:03;99370.94;;;6.68;100.00
23446;BME280;11895;48.738;9.320;2023-02-01T06:53:34;99371.75;;;6.70;100.00
23446;BME280;11895;48.738;9.320;2023-02-01T06:56:03;99370.59;;;6.83;100.00
23446;BME280;11895;48.738;9.320;2023-02-01T06:58:33;99368.53;;;6.94;100.00
23446;BME280;11895;48.738;9.320;2023-02-01T07:01:05;99379.19;;;6.98;100.00
23446;BME280;11895;48.738;9.320;2023-02-01T07:03:34;99387.56;;;7.21;100.00
23446;BME280;11895;48.738;9.320;2023-02-01T07:06:02;99393.00;;;7.18;100.00
23446;BME280;11895;48.738;9.320;2023-02-01T07:08:32;99392.78;;;7.27;100.00
23446;BME280;11895;48.738;9.320;2023-02-01T07:11:09;99390.88;;;7.32;100.00
23446;BME280;11895;48.738;9.320;2023-02-01T07:13:38;99402.78;;;7.20;100.00
23446;BME280;11895;48.738;9.320;2023-02-01T07:16:13;99392.75;;;6.90;100.00
23446;BME280;11895;48.738;9.320;2023-02-01T07:18:42;99401.84;;;7.20;100.00
23446;BME280;11895;48.738;9.320;2023-02-01T07:21:15;99401.53;;;7.34;100.00
23446;BME280;11895;48.738;9.320;2023-02-01T07:23:43;99408.66;;;7.35;100.00
23446;BME280;11895;48.738;9.320;2023-02-01T07:26:12;99410.66;;;7.27;100.00
23446;BME280;11895;48.738;9.320;2023-02-01T07:28:41;99411.47;;;7.30;100.00
23446;BME280;11895;48.738;9.320;2023-02-01T07:31:15;99415.13;;;7.26;100.00
23446;BME280;11895;48.738;9.320;2023-02-01T07:33:46;99422.88;;;7.38;100.00
23446;BME280;11895;48.738;9.320;2023-02-01T07:36:16;99427.94;;;7.51;100.00
23446;BME280;11895;48.738;9.320;2023-02-01T07:38:44;99436.75;;;7.56;100.00
23446;BME280;11895;48.738;9.320;2023-02-01T07:41:14;99428.72;;;7.56;100.00
23446;BME280;11895;48.738;9.320;2023-02-01T07:43:43;99421.94;;;7.01;100.00
23446;BME280;11895;48.738;9.320;2023-02-01T07:46:11;99428.81;;;7.14;100.00
23446;BME280;11895;48.738;9.320;2023-02-01T07:48:39;99432.50;;;6.66;100.00
23446;BME280;11895;48.738;9.320;2023-02-01T07:51:10;99436.56;;;6.42;100.00
23446;BME280;11895;48.738;9.320;2023-02-01T07:53:40;99432.38;;;6.74;100.00
23446;BME280;11895;48.738;9.320;2023-02-01T07:56:14;99432.22;;;6.82;100.00
23446;BME280;11895;48.738;9.320;2023-02-01T07:58:46;99434.81;;;6.85;100.00
23446;BME280;11895;48.738;9.320;2023-02-01T08:01:22;99420.72;;;7.15;100.00
23446;BME280;11895;48.738;9.320;2023-02-01T08:03:57;99419.25;;;7.39;100.00
23446;BME280;11895;48.738;9.320;2023-02-01T08:06:31;99422.88;;;7.00;100.00
23446;BME280;11895;48.738;9.320;2023-02-01T08:09:00;99417.88;;;7.23;100.00
23446;BME280;11895;48.738;9.320;2023-02-01T08:11:29;99430.50;;;6.78;100.00
23446;BME280;11895;48.738;9.320;2023-02-01T08:13:58;99433.44;;;7.06;100.00
23446;BME280;11895;48.738;9.320;2023-02-01T08:16:26;99429.41;;;6.86;100.00
23446;BME280;11895;48.738;9.320;2023-02-01T08:18:55;99412.22;;;6.98;100.00
23446;BME280;11895;48.738;9.320;2023-02-01T08:21:25;99418.78;;;6.83;100.00
23446;BME280;11895;48.738;9.320;2023-02-01T08:24:09;99414.69;;;7.06;100.00
23446;BME280;11895;48.738;9.320;2023-02-01T08:26:37;99422.25;;;6.88;100.00
23446;BME280;11895;48.738;9.320;2023-02-01T08:29:06;99413.13;;;6.95;100.00
23446;BME280;11895;48.738;9.320;2023-02-01T08:31:35;99413.09;;;6.99;100.00
23446;BME280;11895;48.738;9.320;2023-02-01T08:34:09;99406.03;;;6.94;100.00
23446;BME280;11895;48.738;9.320;2023-02-01T08:36:36;99404.13;;;7.00;100.00
23446;BME280;11895;48.738;9.320;2023-02-01T08:39:05;99431.31;;;6.81;100.00
23446;BME280;11895;48.738;9.320;2023-02-01T08:41:37;99407.59;;;6.64;100.00
23446;BME280;11895;48.738;9.320;2023-02-01T08:44:05;99413.75;;;6.68;100.00
23446;BME280;11895;48.738;9.320;2023-02-01T08:46:32;99404.22;;;6.97;100.00
23446;BME280;11895;48.738;9.320;2023-02-01T08:49:00;99402.31;;;7.02;100.00
23446;BME280;11895;48.738;9.320;2023-02-01T08:51:28;99413.00;;;7.40;100.00
23446;BME280;11895;48.738;9.320;2023-02-01T08:53:55;99421.81;;;7.81;100.00
23446;BME280;11895;48.738;9.320;2023-02-01T08:56:23;99423.03;;;8.04;100.00
23446;BME280;11895;48.738;9.320;2023-02-01T08:58:51;99431.72;;;7.78;100.00
23446;BME280;11895;48.738;9.320;2023-02-01T09:01:18;99423.06;;;7.66;100.00
23446;BME280;11895;48.738;9.320;2023-02-01T09:03:46;99414.75;;;7.41;100.00
23446;BME280;11895;48.738;9.320;2023-02-01T09:06:15;99420.38;;;7.31;100.00
23446;BME280;11895;48.738;9.320;2023-02-01T09:08:44;99426.84;;;7.22;100.00
23446;BME280;11895;48.738;9.320;2023-02-01T09:11:14;99428.34;;;7.34;100.00
23446;BME280;11895;48.738;9.320;2023-02-01T09:13:44;99435.28;;;7.42;100.00
23446;BME280;11895;48.738;9.320;2023-02-01T09:16:13;99431.69;;;7.43;100.00
23446;BME280;11895;48.738;9.320;2023-02-01T09:18:41;99429.63;;;7.55;100.00
23446;BME280;11895;48.738;9.320;2023-02-01T09:21:28;99436.75;;;7.56;100.00
23446;BME280;11895;48.738;9.320;2023-02-01T09:23:56;99432.09;;;7.25;100.00
23446;BME280;11895;48.738;9.320;2023-02-01T09:26:24;99440.66;;;7.42;100.00
23446;BME280;11895;48.738;9.320;2023-02-01T09:28:59;99447.09;;;7.34;100.00
23446;BME280;11895;48.738;9.320;2023-02-01T09:31:27;99448.06;;;7.31;100.00
23446;BME280;11895;48.738;9.320;2023-02-01T09:33:56;99450.59;;;6.99;100.00
23446;BME280;11895;48.738;9.320;2023-02-01T09:36:24;99463.88;;;7.03;100.00
23446;BME280;11895;48.738;9.320;2023-02-01T09:38:52;99468.84;;;7.20;100.00
23446;BME280;11895;48.738;9.320;2023-02-01T09:41:32;99459.88;;;7.22;100.00
23446;BME280;11895;48.738;9.320;2023-02-01T09:47:16;99446.16;;;7.36;100.00
23446;BME280;11895;48.738;9.320;2023-02-01T09:50:13;99461.22;;;7.42;100.00
23446;BME280;11895;48.738;9.320;2023-02-01T09:55:48;99454.88;;;8.16;100.00
23446;BME280;11895;48.738;9.320;2023-02-01T09:58:25;99471.94;;;7.79;100.00
23446;BME280;11895;48.738;9.320;2023-02-01T10:00:59;99461.28;;;7.76;100.00
23446;BME280;11895;48.738;9.320;2023-02-01T10:03:31;99450.53;;;7.76;100.00
23446;BME280;11895;48.738;9.320;2023-02-01T10:21:01;99476.66;;;8.39;100.00
23446;BME280;11895;48.738;9.320;2023-02-01T10:29:41;99489.22;;;8.02;100.00
23446;BME280;11895;48.738;9.320;2023-02-01T10:32:14;99491.50;;;8.17;100.00
23446;BME280;11895;48.738;9.320;2023-02-01T10:34:51;99487.31;;;8.07;100.00
23446;BME280;11895;48.738;9.320;2023-02-01T10:37:34;99479.66;;;8.27;100.00
23446;BME280;11895;48.738;9.320;2023-02-01T10:40:24;99475.28;;;8.56;100.00
23446;BME280;11895;48.738;9.320;2023-02-01T10:43:01;99476.34;;;8.52;100.00
23446;BME280;11895;48.738;9.320;2023-02-01T10:45:32;99474.97;;;8.68;100.00
23446;BME280;11895;48.738;9.320;2023-02-01T10:48:02;99475.41;;;8.53;100.00
23446;BME280;11895;48.738;9.320;2023-02-01T10:50:46;99475.16;;;8.62;100.00
23446;BME280;11895;48.738;9.320;2023-02-01T10:56:12;99479.41;;;8.36;100.00
23446;BME280;11895;48.738;9.320;2023-02-01T10:58:46;99475.00;;;8.34;100.00
23446;BME280;11895;48.738;9.320;2023-02-01T11:01:39;99469.19;;;8.50;100.00
23446;BME280;11895;48.738;9.320;2023-02-01T11:04:12;99471.59;;;8.60;100.00
23446;BME280;11895;48.738;9.320;2023-02-01T11:06:51;99469.94;;;8.56;100.00
23446;BME280;11895;48.738;9.320;2023-02-01T11:09:25;99464.47;;;8.59;100.00
23446;BME280;11895;48.738;9.320;2023-02-01T11:12:00;99469.59;;;8.37;100.00
23446;BME280;11895;48.738;9.320;2023-02-01T11:14:38;99458.91;;;8.66;100.00
23446;BME280;11895;48.738;9.320;2023-02-01T11:19:48;99462.13;;;9.09;100.00
23446;BME280;11895;48.738;9.320;2023-02-01T11:22:26;99449.13;;;9.23;100.00
23446;BME280;11895;48.738;9.320;2023-02-01T11:24:56;99449.06;;;9.26;100.00
23446;BME280;11895;48.738;9.320;2023-02-01T11:27:25;99447.91;;;9.35;100.00
23446;BME280;11895;48.738;9.320;2023-02-01T11:29:59;99450.22;;;9.17;100.00
23446;BME280;11895;48.738;9.320;2023-02-01T11:32:53;99430.47;;;9.18;100.00
23446;BME280;11895;48.738;9.320;2023-02-01T11:35:21;99423.00;;;9.28;100.00
23446;BME280;11895;48.738;9.320;2023-02-01T11:37:55;99422.69;;;9.37;100.00
23446;BME280;11895;48.738;9.320;2023-02-01T11:40:35;99423.34;;;9.17;100.00
23446;BME280;11895;48.738;9.320;2023-02-01T11:43:26;99422.53;;;8.84;100.00
23446;BME280;11895;48.738;9.320;2023-02-01T11:46:00;99440.78;;;8.73;100.00
23446;BME280;11895;48.738;9.320;2023-02-01T11:48:31;99405.28;;;8.93;100.00
23446;BME280;11895;48.738;9.320;2023-02-01T11:51:42;99405.69;;;9.09;100.00
23446;BME280;11895;48.738;9.320;2023-02-01T11:54:39;99398.97;;;9.23;100.00
23446;BME280;11895;48.738;9.320;2023-02-01T12:18:27;99372.81;;;9.29;100.00
23446;BME280;11895;48.738;9.320;2023-02-01T12:36:16;99379.84;;;9.05;100.00
23446;BME280;11895;48.738;9.320;2023-02-01T12:41:59;99382.25;;;9.14;100.00
23446;BME280;11895;48.738;9.320;2023-02-01T12:44:39;99378.72;;;9.12;100.00
23446;BME280;11895;48.738;9.320;2023-02-01T12:49:59;99383.38;;;8.77;100.00
23446;BME280;11895;48.738;9.320;2023-02-01T12:52:58;99392.44;;;8.73;100.00
23446;BME280;11895;48.738;9.320;2023-02-01T12:55:44;99371.66;;;8.80;100.00
23446;BME280;11895;48.738;9.320;2023-02-01T12:58:24;99387.41;;;8.92;100.00
23446;BME280;11895;48.738;9.320;2023-02-01T13:01:08;99383.09;;;8.86;100.00
23446;BME280;11895;48.738;9.320;2023-02-01T13:06:15;99387.06;;;8.73;100.00
23446;BME280;11895;48.738;9.320;2023-02-01T13:11:49;99382.16;;;8.87;100.00
23446;BME280;11895;48.738;9.320;2023-02-01T13:17:03;99365.50;;;8.76;100.00
23446;BME280;11895;48.738;9.320;2023-02-01T13:22:33;99372.63;;;8.77;100.00
23446;BME280;11895;48.738;9.320;2023-02-01T13:27:48;99363.38;;;8.87;100.00
23446;BME280;11895;48.738;9.320;2023-02-01T13:30:30;99372.44;;;8.83;100.00
23446;BME280;11895;48.738;9.320;2023-02-01T13:33:11;99365.72;;;8.98;100.00
23446;BME280;11895;48.738;9.320;2023-02-01T13:36:27;99368.25;;;9.02;100.00
23446;BME280;11895;48.738;9.320;2023-02-01T13:42:31;99352.78;;;9.11;100.00
23446;BME280;11895;48.738;9.320;2023-02-01T13:45:05;99364.97;;;8.93;100.00
23446;BME280;11895;48.738;9.320;2023-02-01T13:47:51;99366.00;;;8.89;100.00
23446;BME280;11895;48.738;9.320;2023-02-01T13:55:49;99360.16;;;8.74;100.00
23446;BME280;11895;48.738;9.320;2023-02-01T14:04:02;99343.88;;;8.81;100.00
23446;BME280;11895;48.738;9.320;2023-02-01T14:15:24;99341.97;;;8.55;100.00
23446;BME280;11895;48.738;9.320;2023-02-01T14:17:59;99339.47;;;8.48;100.00
23446;BME280;11895;48.738;9.320;2023-02-01T14:23:15;99341.22;;;8.49;100.00
23446;BME280;11895;48.738;9.320;2023-02-01T14:25:46;99344.28;;;8.37;100.00
23446;BME280;11895;48.738;9.320;2023-02-01T14:28:27;99332.44;;;8.44;100.00
23446;BME280;11895;48.738;9.320;2023-02-01T14:30:58;99331.22;;;8.56;100.00
23446;BME280;11895;48.738;9.320;2023-02-01T14:33:28;99341.16;;;8.53;100.00
23446;BME280;11895;48.738;9.320;2023-02-01T14:36:06;99347.19;;;8.61;100.00
23446;BME280;11895;48.738;9.320;2023-02-01T14:38:37;99346.94;;;8.68;100.00
23446;BME280;11895;48.738;9.320;2023-02-01T14:47:03;99351.47;;;8.35;100.00
23446;BME280;11895;48.738;9.320;2023-02-01T14:49:52;99346.31;;;8.28;100.00
23446;BME280;11895;48.738;9.320;2023-02-01T14:55:27;99362.09;;;8.40;100.00
23446;BME280;11895;48.738;9.320;2023-02-01T14:57:59;99364.75;;;8.41;100.00
23446;BME280;11895;48.738;9.320;2023-02-01T15:00:31;99374.84;;;8.63;100.00
23446;BME280;11895;48.738;9.320;2023-02-01T15:06:32;99392.97;;;8.55;100.00
23446;BME280;11895;48.738;9.320;2023-02-01T15:12:27;99367.19;;;8.80;100.00
23446;BME280;11895;48.738;9.320;2023-02-01T15:15:15;99365.00;;;8.63;100.00
23446;BME280;11895;48.738;9.320;2023-02-01T15:17:56;99366.47;;;8.73;100.00
23446;BME280;11895;48.738;9.320;2023-02-01T15:20:29;99367.53;;;8.68;100.00
23446;BME280;11895;48.738;9.320;2023-02-01T15:23:01;99378.81;;;8.49;100.00
23446;BME280;11895;48.738;9.320;2023-02-01T15:25:34;99379.47;;;8.58;100.00
23446;BME280;11895;48.738;9.320;2023-02-01T15:28:05;99371.16;;;8.67;100.00
23446;BME280;11895;48.738;9.320;2023-02-01T15:30:36;99395.84;;;8.48;100.00
23446;BME280;11895;48.738;9.320;2023-02-01T15:33:22;99380.31;;;8.60;100.00
23446;BME280;11895;48.738;9.320;2023-02-01T15:41:19;99393.88;;;8.55;100.00
23446;BME280;11895;48.738;9.320;2023-02-01T15:46:31;99386.34;;;8.35;100.00
23446;BME280;11895;48.738;9.320;2023-02-01T15:49:00;99385.09;;;8.16;100.00
23446;BME280;11895;48.738;9.320;2023-02-01T15:51:30;99383.78;;;8.32;100.00
23446;BME280;11895;48.738;9.320;2023-02-01T15:54:05;99386.88;;;8.49;100.00
23446;BME280;11895;48.738;9.320;2023-02-01T15:56:40;99384.09;;;8.53;100.00
23446;BME280;11895;48.738;9.320;2023-02-01T15:59:16;99379.25;;;8.65;100.00
23446;BME280;11895;48.738;9.320;2023-02-01T16:06:02;99391.31;;;8.50;100.00
23446;BME280;11895;48.738;9.320;2023-02-01T16:08:35;99400.03;;;8.59;100.00
23446;BME280;11895;48.738;9.320;2023-02-01T16:13:59;99402.50;;;8.66;100.00
23446;BME280;11895;48.738;9.320;2023-02-01T16:16:29;99409.34;;;8.45;100.00
23446;BME280;11895;48.738;9.320;2023-02-01T16:18:57;99412.63;;;8.57;100.00
23446;BME280;11895;48.738;9.320;2023-02-01T16:21:25;99403.59;;;8.59;100.00
23446;BME280;11895;48.738;9.320;2023-02-01T16:23:53;99415.31;;;8.24;100.00
23446;BME280;11895;48.738;9.320;2023-02-01T16:26:23;99415.56;;;8.15;100.00
23446;BME280;11895;48.738;9.320;2023-02-01T16:28:50;99418.00;;;7.90;100.00
23446;BME280;11895;48.738;9.320;2023-02-01T16:31:23;99424.44;;;7.84;100.00
23446;BME280;11895;48.738;9.320;2023-02-01T16:33:55;99410.72;;;7.95;100.00